Time;durP1;ratioP1;P1;durP2;ratioP2;P2;SDS_P1;SDS_P2;PMS_P1;PMS_P2;Temp;Humidity;BMP_temperature;BMP_pressure;BME280_temperature;BME280_humidity;BME280_pressure;Samples;Min_cycle;Max_cycle;Signal;HPM_P1;HPM_P2
2024/03/09 00:00:19;;;;;;;20.60;14.73;;;4.10;99.90;;;;;;5018670;28;20766;-85
2024/03/09 00:02:51;;;;;;;20.40;14.93;;;4.00;99.90;;;;;;5020978;28;20247;-86
2024/03/09 00:05:21;;;;;;;21.37;16.07;;;4.00;99.90;;;;;;5004862;28;20211;-86
2024/03/09 00:07:48;;;;;;;21.33;14.70;;;3.90;99.90;;;;;;5003707;28;20617;-86
2024/03/09 00:10:15;;;;;;;25.83;15.57;;;3.90;99.90;;;;;;5002162;28;20187;-86
2024/03/09 00:12:42;;;;;;;20.50;14.03;;;3.90;99.90;;;;;;5009342;28;20235;-86
2024/03/09 00:15:11;;;;;;;21.40;15.27;;;3.90;99.90;;;;;;5004217;28;20247;-86
2024/03/09 00:17:47;;;;;;;20.13;14.80;;;3.90;99.90;;;;;;5000907;28;20187;-86
2024/03/09 00:20:24;;;;;;;24.33;15.53;;;3.90;99.90;;;;;;5021684;28;20188;-86
2024/03/09 00:22:58;;;;;;;19.30;14.70;;;4.00;99.90;;;;;;5021519;28;20257;-86
2024/03/09 00:25:28;;;;;;;25.60;14.77;;;4.00;99.90;;;;;;5003989;28;20242;-86
2024/03/09 00:27:55;;;;;;;24.50;15.43;;;4.00;99.90;;;;;;5019622;28;20184;-85
2024/03/09 00:30:21;;;;;;;18.63;13.77;;;4.10;99.90;;;;;;5026502;28;20184;-86
2024/03/09 00:32:51;;;;;;;22.37;14.23;;;4.20;99.90;;;;;;5008711;28;20254;-85
2024/03/09 00:35:18;;;;;;;19.13;13.70;;;4.30;99.90;;;;;;5008526;28;20187;-86
2024/03/09 00:37:44;;;;;;;17.90;12.73;;;4.40;99.90;;;;;;5003951;28;20188;-86
2024/03/09 00:40:10;;;;;;;18.30;14.23;;;4.40;99.90;;;;;;4992172;28;20187;-86
2024/03/09 00:42:38;;;;;;;21.97;14.40;;;4.50;99.90;;;;;;5022685;28;20215;-85
2024/03/09 00:45:05;;;;;;;17.40;13.63;;;4.50;99.90;;;;;;4988084;28;20188;-85
2024/03/09 00:47:32;;;;;;;18.30;12.73;;;4.50;99.90;;;;;;5001371;28;20188;-85
2024/03/09 00:49:58;;;;;;;18.73;12.80;;;4.60;99.90;;;;;;5002266;28;20188;-85
2024/03/09 00:52:25;;;;;;;17.23;12.90;;;4.60;99.90;;;;;;5023360;28;20204;-85
2024/03/09 00:54:55;;;;;;;18.87;12.57;;;4.60;99.90;;;;;;5017926;28;20199;-85
2024/03/09 00:57:23;;;;;;;16.60;12.87;;;4.70;99.90;;;;;;4999450;28;20612;-85
2024/03/09 00:59:49;;;;;;;16.67;13.33;;;4.70;99.90;;;;;;4993369;28;20644;-85
2024/03/09 01:02:16;;;;;;;17.63;12.67;;;4.80;99.90;;;;;;5000851;28;20219;-85
2024/03/09 01:04:43;;;;;;;15.43;12.17;;;4.90;99.90;;;;;;4998903;28;20180;-85
2024/03/09 01:07:08;;;;;;;19.50;13.10;;;4.80;99.90;;;;;;5022754;28;20514;-85
2024/03/09 01:09:34;;;;;;;15.23;11.57;;;4.90;99.90;;;;;;5003108;28;20187;-85
2024/03/09 01:12:00;;;;;;;16.73;11.90;;;4.90;99.90;;;;;;5020394;28;20187;-85
2024/03/09 01:14:25;;;;;;;16.23;12.30;;;5.00;99.90;;;;;;5020745;28;20195;-85
2024/03/09 01:16:52;;;;;;;17.97;12.57;;;5.00;99.90;;;;;;4986750;28;20212;-85
2024/03/09 01:19:20;;;;;;;16.80;11.93;;;5.10;99.90;;;;;;5000769;28;20284;-85
2024/03/09 01:21:46;;;;;;;16.43;12.07;;;5.10;99.90;;;;;;4999261;28;20206;-85
2024/03/09 01:24:12;;;;;;;14.13;11.43;;;5.20;99.90;;;;;;4999387;28;20184;-85
2024/03/09 01:26:38;;;;;;;15.37;11.57;;;5.10;99.90;;;;;;5005423;28;20211;-85
2024/03/09 01:29:04;;;;;;;18.30;11.77;;;5.20;99.90;;;;;;5003288;28;20275;-85
2024/03/09 01:31:31;;;;;;;15.80;11.97;;;5.20;99.90;;;;;;5007993;28;20239;-85
2024/03/09 01:33:59;;;;;;;17.63;11.30;;;5.20;99.90;;;;;;5005562;28;20196;-85
2024/03/09 01:36:26;;;;;;;18.07;12.43;;;5.30;99.90;;;;;;5026062;28;20263;-85
2024/03/09 01:38:53;;;;;;;17.13;11.87;;;5.30;99.90;;;;;;5010220;28;20176;-85
2024/03/09 01:41:22;;;;;;;17.30;11.60;;;5.40;99.90;;;;;;5026228;28;20172;-86
2024/03/09 01:43:48;;;;;;;15.67;11.37;;;5.40;99.90;;;;;;5024884;28;20280;-85
2024/03/09 01:46:19;;;;;;;16.10;11.80;;;5.40;99.90;;;;;;5006842;28;20694;-85
2024/03/09 01:48:46;;;;;;;15.00;10.93;;;5.40;99.90;;;;;;4999126;28;20188;-85
2024/03/09 01:51:14;;;;;;;17.63;12.03;;;5.50;99.90;;;;;;5018577;28;20192;-85
2024/03/09 01:53:42;;;;;;;14.73;11.80;;;5.60;99.90;;;;;;5019168;28;20291;-85
2024/03/09 01:56:11;;;;;;;16.63;11.60;;;5.60;99.90;;;;;;5016957;28;20198;-85
2024/03/09 01:58:41;;;;;;;13.90;10.60;;;5.70;99.90;;;;;;4999473;28;20191;-85
2024/03/09 02:01:21;;;;;;;16.77;11.37;;;5.80;99.90;;;;;;5002702;28;20192;-85
2024/03/09 02:03:57;;;;;;;15.60;10.90;;;5.80;99.90;;;;;;5017032;28;20214;-86
2024/03/09 02:06:27;;;;;;;15.90;11.87;;;5.90;99.90;;;;;;4998799;28;20290;-85
2024/03/09 02:08:57;;;;;;;14.20;11.30;;;5.90;99.90;;;;;;5020059;28;20184;-85
2024/03/09 02:11:24;;;;;;;16.37;12.20;;;5.90;99.90;;;;;;5001303;28;20184;-85
2024/03/09 02:13:51;;;;;;;15.17;12.17;;;6.10;99.90;;;;;;5016885;28;20616;-85
2024/03/09 02:16:22;;;;;;;13.77;10.57;;;6.10;99.90;;;;;;5017187;28;20662;-85
2024/03/09 02:18:48;;;;;;;15.70;11.57;;;6.20;99.90;;;;;;5003809;28;20215;-85
2024/03/09 02:21:15;;;;;;;15.70;11.13;;;6.20;99.90;;;;;;4998078;28;20650;-85
2024/03/09 02:23:46;;;;;;;13.83;11.90;;;6.10;99.90;;;;;;5001301;28;20262;-85
2024/03/09 02:26:15;;;;;;;14.90;11.20;;;6.20;99.90;;;;;;5001987;28;20451;-85
2024/03/09 02:28:55;;;;;;;14.60;10.90;;;6.20;99.90;;;;;;5003079;28;20242;-85
2024/03/09 02:31:24;;;;;;;12.90;10.70;;;6.20;99.90;;;;;;4998833;28;20710;-85
2024/03/09 02:33:53;;;;;;;16.67;10.73;;;6.20;99.90;;;;;;5018331;28;20286;-85
2024/03/09 02:36:25;;;;;;;16.97;11.30;;;6.20;99.90;;;;;;5018181;28;20270;-85
2024/03/09 02:38:55;;;;;;;14.97;10.00;;;6.30;99.90;;;;;;5023423;28;20219;-85
2024/03/09 02:41:26;;;;;;;13.80;10.40;;;6.30;99.90;;;;;;5001840;28;20237;-85
2024/03/09 02:43:55;;;;;;;14.40;11.63;;;6.30;99.90;;;;;;5014310;28;20204;-86
2024/03/09 02:46:25;;;;;;;13.83;10.40;;;6.30;99.90;;;;;;4980232;28;20593;-86
2024/03/09 02:48:53;;;;;;;16.00;11.17;;;6.30;99.90;;;;;;5000333;28;20183;-85
2024/03/09 02:51:20;;;;;;;12.63;10.13;;;6.40;99.90;;;;;;5008273;28;20204;-85
2024/03/09 02:53:45;;;;;;;12.97;10.23;;;6.40;99.90;;;;;;5001969;28;20195;-85
2024/03/09 02:56:20;;;;;;;16.03;10.80;;;6.30;99.90;;;;;;5014884;28;20216;-85
2024/03/09 02:58:47;;;;;;;17.33;12.00;;;6.30;99.90;;;;;;5000866;28;20174;-85
2024/03/09 03:01:13;;;;;;;16.50;11.40;;;6.30;99.90;;;;;;5008329;28;20208;-85
2024/03/09 03:03:59;;;;;;;13.10;9.80;;;6.40;99.90;;;;;;4998635;28;20207;-85
2024/03/09 03:06:28;;;;;;;19.63;11.87;;;6.30;99.90;;;;;;5004477;28;20207;-85
2024/03/09 03:08:57;;;;;;;15.47;10.90;;;6.30;99.90;;;;;;5014038;28;20690;-85
2024/03/09 03:11:23;;;;;;;13.40;10.20;;;6.30;99.90;;;;;;4980736;28;20184;-85
2024/03/09 03:13:51;;;;;;;14.03;10.77;;;6.20;99.90;;;;;;5017672;28;20209;-85
2024/03/09 03:16:29;;;;;;;14.03;10.60;;;6.20;99.90;;;;;;4998837;28;20562;-85
2024/03/09 03:18:56;;;;;;;15.47;10.87;;;6.20;99.90;;;;;;4981275;28;20208;-85
2024/03/09 03:21:22;;;;;;;16.57;10.90;;;6.20;99.90;;;;;;5027685;28;20188;-85
2024/03/09 03:23:48;;;;;;;13.60;10.93;;;6.10;99.90;;;;;;5010688;28;20571;-85
2024/03/09 03:26:15;;;;;;;20.13;11.50;;;6.10;99.90;;;;;;5004453;28;20268;-86
2024/03/09 03:28:45;;;;;;;15.23;11.30;;;6.10;99.90;;;;;;4987888;28;20262;-86
2024/03/09 03:31:12;;;;;;;13.10;10.17;;;6.00;99.90;;;;;;5019875;28;20189;-85
2024/03/09 03:33:39;;;;;;;13.47;10.43;;;6.00;99.90;;;;;;5003147;28;20196;-85
2024/03/09 03:36:09;;;;;;;14.80;11.23;;;6.00;99.90;;;;;;5011904;28;20175;-86
2024/03/09 03:38:35;;;;;;;14.67;10.93;;;5.90;99.90;;;;;;5021895;28;20653;-85
2024/03/09 03:41:08;;;;;;;13.20;10.47;;;6.00;99.90;;;;;;5003146;28;20210;-85
2024/03/09 03:43:35;;;;;;;14.73;10.50;;;6.00;99.90;;;;;;5000957;28;20207;-85
2024/03/09 03:46:01;;;;;;;15.30;11.13;;;6.00;99.90;;;;;;4997543;28;20236;-85
2024/03/09 03:48:28;;;;;;;14.27;11.20;;;6.00;99.90;;;;;;5001754;28;20175;-85
2024/03/09 03:50:55;;;;;;;16.27;11.40;;;6.00;99.90;;;;;;4985782;28;20563;-85
2024/03/09 03:53:21;;;;;;;14.47;11.03;;;6.00;99.90;;;;;;5015235;28;20670;-85
2024/03/09 03:55:47;;;;;;;12.50;10.87;;;6.00;99.90;;;;;;4997376;28;20204;-85
2024/03/09 03:58:15;;;;;;;15.23;11.37;;;6.10;99.90;;;;;;4998245;28;20670;-86
2024/03/09 04:00:41;;;;;;;15.83;11.00;;;6.10;99.90;;;;;;5023089;28;20188;-85
2024/03/09 04:03:07;;;;;;;15.53;11.37;;;6.20;99.90;;;;;;5001145;28;20200;-85
2024/03/09 04:05:33;;;;;;;16.77;11.97;;;6.20;99.90;;;;;;5006213;28;20195;-86
2024/03/09 04:07:59;;;;;;;13.03;10.87;;;6.20;99.90;;;;;;5035914;28;20650;-85
2024/03/09 04:10:26;;;;;;;13.07;11.00;;;6.20;99.90;;;;;;5001144;28;20270;-86
2024/03/09 04:12:51;;;;;;;14.73;10.87;;;6.30;99.90;;;;;;5002864;28;20204;-85
2024/03/09 04:15:17;;;;;;;14.83;11.57;;;6.20;99.90;;;;;;5013254;28;20184;-85
2024/03/09 04:17:43;;;;;;;14.63;10.33;;;6.30;99.90;;;;;;5017306;28;20195;-85
2024/03/09 04:20:11;;;;;;;18.00;12.47;;;6.30;99.90;;;;;;5020485;28;20188;-85
2024/03/09 04:22:37;;;;;;;16.47;11.83;;;6.30;99.90;;;;;;5001237;28;20741;-85
2024/03/09 04:25:03;;;;;;;16.63;11.80;;;6.30;99.90;;;;;;5022638;28;20200;-85
2024/03/09 04:27:30;;;;;;;14.93;11.87;;;6.30;99.90;;;;;;5004056;28;20614;-85
2024/03/09 04:29:57;;;;;;;16.63;11.47;;;6.30;99.90;;;;;;5020485;28;20694;-85
2024/03/09 04:32:27;;;;;;;13.67;10.97;;;6.40;99.90;;;;;;5003228;28;20686;-86
2024/03/09 04:34:54;;;;;;;15.87;11.73;;;6.30;99.90;;;;;;5006106;28;20184;-85
2024/03/09 04:37:26;;;;;;;17.30;11.47;;;6.40;99.90;;;;;;4999728;28;20188;-86
2024/03/09 04:39:53;;;;;;;16.50;11.67;;;6.40;99.90;;;;;;5017336;28;20267;-85
2024/03/09 04:42:25;;;;;;;15.63;13.10;;;6.30;99.90;;;;;;5001440;28;20262;-85
2024/03/09 04:44:51;;;;;;;14.90;10.83;;;6.40;99.90;;;;;;5003814;28;20540;-86
2024/03/09 04:47:18;;;;;;;16.50;11.43;;;6.30;99.90;;;;;;5037345;28;21038;-85
2024/03/09 04:49:45;;;;;;;14.20;10.83;;;6.30;99.90;;;;;;5003649;28;20202;-85
2024/03/09 04:52:12;;;;;;;18.30;12.77;;;6.20;99.90;;;;;;5018048;28;20207;-85
2024/03/09 04:54:43;;;;;;;16.63;11.53;;;6.10;99.90;;;;;;5006403;28;20183;-85
2024/03/09 04:57:17;;;;;;;16.47;12.37;;;6.20;99.90;;;;;;5000382;28;20184;-85
2024/03/09 04:59:43;;;;;;;19.17;13.57;;;6.10;99.90;;;;;;5000464;28;20275;-85
2024/03/09 05:02:10;;;;;;;14.27;11.50;;;6.10;99.90;;;;;;5017970;28;20322;-84
2024/03/09 05:04:36;;;;;;;16.80;11.83;;;6.10;99.90;;;;;;5023687;28;20272;-85
2024/03/09 05:07:03;;;;;;;16.23;12.17;;;6.10;99.90;;;;;;5002954;28;20200;-84
2024/03/09 05:09:31;;;;;;;18.83;12.80;;;6.10;99.90;;;;;;5001150;28;20172;-84
2024/03/09 05:12:00;;;;;;;15.83;11.87;;;6.10;99.90;;;;;;5007098;28;20180;-84
2024/03/09 05:14:25;;;;;;;17.30;12.80;;;6.10;99.90;;;;;;5005970;28;20168;-84
2024/03/09 05:16:51;;;;;;;17.50;12.70;;;6.10;99.90;;;;;;5005161;28;20227;-84
2024/03/09 05:19:17;;;;;;;16.30;13.23;;;6.10;99.90;;;;;;5007882;28;20246;-85
2024/03/09 05:21:44;;;;;;;17.00;12.53;;;6.10;99.90;;;;;;4999512;28;20230;-84
2024/03/09 05:24:10;;;;;;;17.33;13.07;;;6.10;99.90;;;;;;5015066;28;20206;-84
2024/03/09 05:26:36;;;;;;;19.57;13.37;;;6.00;99.90;;;;;;5002448;28;20254;-85
2024/03/09 05:29:02;;;;;;;16.60;12.30;;;6.00;99.90;;;;;;5004438;28;20184;-86
2024/03/09 05:31:30;;;;;;;23.33;12.60;;;6.00;99.90;;;;;;5017922;28;20172;-85
2024/03/09 05:33:56;;;;;;;16.33;13.00;;;6.00;99.90;;;;;;4984353;28;20250;-85
2024/03/09 05:36:22;;;;;;;17.07;12.90;;;6.00;99.90;;;;;;5031883;28;20225;-86
2024/03/09 05:38:49;;;;;;;19.53;12.83;;;6.00;99.90;;;;;;4999997;28;20216;-85
2024/03/09 05:41:16;;;;;;;16.20;12.43;;;6.00;99.90;;;;;;5025131;28;20180;-85
2024/03/09 05:43:50;;;;;;;18.87;12.63;;;6.10;99.90;;;;;;5023238;28;20200;-84
2024/03/09 05:46:16;;;;;;;17.93;12.80;;;6.00;99.90;;;;;;5023721;28;20263;-85
2024/03/09 05:48:46;;;;;;;16.27;11.70;;;6.00;99.90;;;;;;5030670;28;20203;-85
2024/03/09 05:51:14;;;;;;;17.80;12.33;;;6.00;99.90;;;;;;5018221;28;20267;-84
2024/03/09 05:53:43;;;;;;;17.40;12.43;;;6.00;99.90;;;;;;5034772;28;20211;-85
2024/03/09 05:56:11;;;;;;;18.30;12.40;;;6.00;99.90;;;;;;5033066;28;20180;-85
2024/03/09 05:58:40;;;;;;;20.70;12.70;;;6.00;99.90;;;;;;5011332;28;20184;-84
2024/03/09 06:01:06;;;;;;;15.63;12.27;;;6.00;99.90;;;;;;5024765;28;20187;-84
2024/03/09 06:03:31;;;;;;;21.10;13.47;;;6.00;99.90;;;;;;5001647;28;20200;-84
2024/03/09 06:05:57;;;;;;;17.97;12.60;;;6.00;99.90;;;;;;5001959;28;20212;-85
2024/03/09 06:08:23;;;;;;;17.53;13.23;;;6.00;99.90;;;;;;5027031;28;20210;-84
2024/03/09 06:10:53;;;;;;;18.67;11.70;;;6.00;99.90;;;;;;5004960;28;20313;-84
2024/03/09 06:13:19;;;;;;;19.03;13.13;;;6.00;99.90;;;;;;5005419;28;20216;-84
2024/03/09 06:15:47;;;;;;;20.37;12.90;;;5.90;99.90;;;;;;5031492;28;20255;-85
2024/03/09 06:18:17;;;;;;;19.37;13.53;;;5.90;99.90;;;;;;5000972;28;20288;-85
2024/03/09 06:20:48;;;;;;;20.60;13.07;;;5.90;99.90;;;;;;4996057;28;20192;-86
2024/03/09 06:23:14;;;;;;;19.40;13.63;;;5.90;99.90;;;;;;5009455;28;20206;-84
2024/03/09 06:25:41;;;;;;;18.63;13.13;;;5.80;99.90;;;;;;5003440;28;20199;-85
2024/03/09 06:28:08;;;;;;;17.50;12.50;;;5.90;99.90;;;;;;5003616;28;20550;-85
2024/03/09 06:30:36;;;;;;;16.83;12.87;;;5.90;99.90;;;;;;5004980;28;20593;-85
2024/03/09 06:33:02;;;;;;;21.10;14.20;;;5.90;99.90;;;;;;5003827;28;20197;-85
2024/03/09 06:35:28;;;;;;;17.93;12.63;;;5.90;99.90;;;;;;4991603;28;20176;-87
2024/03/09 06:38:04;;;;;;;18.13;12.47;;;5.90;99.90;;;;;;5042468;28;20180;-87
2024/03/09 06:40:34;;;;;;;17.33;12.17;;;5.90;99.90;;;;;;5007676;28;20207;-86
2024/03/09 06:43:06;;;;;;;14.80;12.20;;;5.90;99.90;;;;;;5017121;28;20549;-84
2024/03/09 06:45:32;;;;;;;16.27;13.17;;;5.90;99.90;;;;;;5018037;28;20254;-85
2024/03/09 06:47:58;;;;;;;25.47;13.53;;;5.90;99.90;;;;;;5009418;28;20240;-86
2024/03/09 06:50:28;;;;;;;18.93;13.93;;;5.90;99.90;;;;;;5001577;28;20266;-87
2024/03/09 06:52:55;;;;;;;15.03;12.47;;;5.90;99.90;;;;;;4994804;28;20199;-88
2024/03/09 06:55:25;;;;;;;20.27;13.17;;;5.80;99.90;;;;;;5018586;28;20190;-87
2024/03/09 06:57:54;;;;;;;15.90;12.60;;;5.90;99.90;;;;;;5020014;28;20190;-86
2024/03/09 07:00:20;;;;;;;18.43;12.30;;;5.90;99.90;;;;;;5003555;28;20203;-85
2024/03/09 07:02:49;;;;;;;20.57;13.40;;;5.90;99.90;;;;;;5004627;28;20186;-84
2024/03/09 07:05:15;;;;;;;16.43;12.30;;;5.80;99.90;;;;;;5001334;23;20232;-72
2024/03/09 07:07:41;;;;;;;16.07;12.67;;;6.00;99.90;;;;;;4984866;28;20784;-72
2024/03/09 07:10:09;;;;;;;16.87;11.40;;;6.00;99.90;;;;;;4971518;28;20180;-72
2024/03/09 07:12:41;;;;;;;18.93;12.97;;;6.30;99.90;;;;;;4972114;28;20635;-71
2024/03/09 07:15:22;;;;;;;16.60;12.37;;;6.70;99.90;;;;;;4970998;28;20193;-71
2024/03/09 07:17:49;;;;;;;15.73;12.50;;;7.00;99.90;;;;;;4986086;28;20192;-71
2024/03/09 07:22:44;;;;;;;17.73;12.83;;;7.70;99.90;;;;;;4971215;28;20233;-70
2024/03/09 07:25:16;;;;;;;18.40;12.53;;;8.00;99.90;;;;;;4972061;28;20182;-72
2024/03/09 07:27:43;;;;;;;16.03;12.27;;;8.20;99.90;;;;;;4972088;28;20182;-70
2024/03/09 07:30:11;;;;;;;19.47;12.47;;;8.40;99.90;;;;;;4970676;28;20276;-71
2024/03/09 07:32:38;;;;;;;19.17;11.93;;;8.50;99.90;;;;;;4972423;28;20541;-73
2024/03/09 07:35:14;;;;;;;19.63;12.67;;;8.70;99.90;;;;;;4972142;28;20236;-70
2024/03/09 07:37:53;;;;;;;18.10;12.03;;;8.90;99.90;;;;;;4975339;28;20181;-70
2024/03/09 07:40:24;;;;;;;16.97;11.67;;;9.00;99.90;;;;;;4976119;28;20208;-71
2024/03/09 07:42:54;;;;;;;16.43;12.23;;;9.20;99.90;;;;;;4976039;28;20186;-70
2024/03/09 07:45:22;;;;;;;18.87;12.90;;;9.40;99.90;;;;;;4975253;28;20300;-71
2024/03/09 07:47:49;;;;;;;16.20;11.63;;;9.50;99.90;;;;;;4976088;28;20182;-70
2024/03/09 07:50:16;;;;;;;18.13;12.03;;;9.70;99.90;;;;;;4975760;28;20300;-70
2024/03/09 07:52:55;;;;;;;17.43;12.30;;;9.80;99.90;;;;;;4978776;28;20224;-68
2024/03/09 07:55:23;;;;;;;17.17;11.93;;;10.10;99.90;;;;;;4976965;28;20192;-70
2024/03/09 07:57:55;;;;;;;19.00;12.20;;;10.20;99.90;;;;;;4979401;28;20197;-72
2024/03/09 08:00:27;;;;;;;16.40;12.00;;;10.30;99.90;;;;;;4962183;28;20212;-71
2024/03/09 08:02:56;;;;;;;16.97;11.93;;;10.50;99.90;;;;;;4974695;28;20245;-70
2024/03/09 08:05:24;;;;;;;15.60;12.27;;;10.60;99.90;;;;;;4979012;28;20288;-70
2024/03/09 08:07:51;;;;;;;14.87;11.60;;;10.70;99.90;;;;;;4980036;28;20178;-70
2024/03/09 08:10:24;;;;;;;16.00;10.57;;;10.80;99.60;;;;;;4978691;28;20203;-70
2024/03/09 08:12:50;;;;;;;18.57;11.70;;;10.70;98.40;;;;;;4962003;28;20266;-70
2024/03/09 08:15:16;;;;;;;15.03;11.93;;;10.90;98.80;;;;;;4978279;28;20205;-69
2024/03/09 08:17:43;;;;;;;15.03;10.70;;;11.00;96.90;;;;;;4977479;28;20177;-70
2024/03/09 08:20:14;;;;;;;14.10;11.23;;;11.30;97.50;;;;;;4978678;28;20228;-71
2024/03/09 08:22:41;;;;;;;19.00;11.60;;;11.60;95.90;;;;;;4980546;28;20276;-70
2024/03/09 08:25:07;;;;;;;15.80;11.63;;;11.60;93.70;;;;;;4977327;28;20200;-70
2024/03/09 08:27:39;;;;;;;15.63;11.73;;;11.60;93.50;;;;;;4978365;28;20189;-70
2024/03/09 08:30:06;;;;;;;16.50;11.60;;;11.50;92.90;;;;;;4986028;28;20245;-69
2024/03/09 08:32:32;;;;;;;13.73;10.97;;;11.60;92.60;;;;;;4976358;28;20182;-71
2024/03/09 08:34:58;;;;;;;17.73;12.60;;;11.70;91.80;;;;;;4976308;28;20649;-70
2024/03/09 08:37:25;;;;;;;18.83;12.30;;;11.90;91.80;;;;;;4975238;28;20185;-71
2024/03/09 08:39:51;;;;;;;16.07;11.90;;;12.00;92.00;;;;;;4983512;28;20204;-70
2024/03/09 08:42:20;;;;;;;14.30;11.03;;;12.20;91.70;;;;;;4975190;28;20213;-70
2024/03/09 08:44:46;;;;;;;15.60;11.53;;;12.40;90.70;;;;;;4974999;28;20579;-71
2024/03/09 08:47:12;;;;;;;15.83;11.47;;;12.60;90.10;;;;;;4974524;28;20197;-70
2024/03/09 08:49:39;;;;;;;15.50;11.53;;;12.80;90.00;;;;;;4974174;28;20519;-70
2024/03/09 08:52:05;;;;;;;16.23;11.43;;;12.80;87.50;;;;;;4974549;28;20225;-71
2024/03/09 08:54:33;;;;;;;15.67;11.43;;;13.10;88.50;;;;;;4974475;28;20177;-72
2024/03/09 08:57:00;;;;;;;15.87;11.43;;;13.40;86.30;;;;;;4974281;28;20186;-72
2024/03/09 08:59:26;;;;;;;15.00;11.57;;;13.80;83.90;;;;;;4973876;28;20287;-72
2024/03/09 09:01:52;;;;;;;15.30;11.70;;;14.00;84.30;;;;;;4974716;28;20248;-72
2024/03/09 09:04:18;;;;;;;15.70;11.80;;;14.30;81.60;;;;;;4974714;28;20213;-73
2024/03/09 09:06:44;;;;;;;17.60;11.87;;;14.20;76.20;;;;;;4974573;28;20209;-72
2024/03/09 09:09:16;;;;;;;14.43;11.50;;;13.90;79.10;;;;;;4956673;28;20180;-72
2024/03/09 09:11:43;;;;;;;15.37;11.53;;;13.70;76.70;;;;;;4974163;28;20180;-72
2024/03/09 09:14:08;;;;;;;13.50;10.50;;;13.80;80.20;;;;;;4974189;28;20611;-73
2024/03/09 09:16:34;;;;;;;15.03;11.80;;;14.10;79.30;;;;;;4973589;28;20202;-72
2024/03/09 09:19:00;;;;;;;13.90;11.13;;;14.20;76.70;;;;;;4973840;28;20644;-72
2024/03/09 09:21:30;;;;;;;15.37;11.53;;;14.40;77.70;;;;;;4973710;28;20189;-72
2024/03/09 09:23:56;;;;;;;16.07;11.30;;;14.60;76.80;;;;;;4973828;28;20173;-72
2024/03/09 09:26:21;;;;;;;15.03;12.40;;;14.70;75.00;;;;;;4973603;28;20209;-72
2024/03/09 09:28:49;;;;;;;16.10;12.00;;;14.30;71.40;;;;;;4973822;28;20178;-71
2024/03/09 09:31:15;;;;;;;16.07;11.90;;;14.60;75.80;;;;;;4973694;28;20209;-73
2024/03/09 09:33:40;;;;;;;16.80;11.63;;;14.90;75.70;;;;;;4973687;28;20179;-72
2024/03/09 09:36:12;;;;;;;15.30;11.30;;;14.90;71.20;;;;;;4973475;28;20590;-73
2024/03/09 09:38:40;;;;;;;17.33;11.60;;;14.70;69.70;;;;;;4973329;28;20216;-72
2024/03/09 09:41:08;;;;;;;15.80;11.50;;;14.60;71.80;;;;;;4973847;28;20201;-73
2024/03/09 09:43:39;;;;;;;15.67;11.67;;;14.50;68.90;;;;;;4973394;28;20229;-71
2024/03/09 09:46:05;;;;;;;15.23;11.20;;;14.70;72.30;;;;;;4973260;28;20588;-74
2024/03/09 09:48:37;;;;;;;17.97;11.53;;;14.70;68.60;;;;;;4973320;28;20182;-72
2024/03/09 09:51:05;;;;;;;15.03;11.23;;;14.60;69.00;;;;;;4973284;28;20252;-73
2024/03/09 09:53:32;;;;;;;15.63;12.10;;;14.60;69.40;;;;;;4973151;28;20184;-73
2024/03/09 09:55:59;;;;;;;14.60;11.30;;;14.30;67.70;;;;;;4955834;28;20289;-74
2024/03/09 09:58:25;;;;;;;16.37;12.23;;;14.40;69.30;;;;;;4973156;28;20185;-73
2024/03/09 10:00:53;;;;;;;14.57;11.60;;;14.50;70.90;;;;;;4973075;28;20208;-73
2024/03/09 10:03:19;;;;;;;15.67;12.27;;;14.70;68.80;;;;;;4972949;28;20250;-71
2024/03/09 10:05:45;;;;;;;15.50;11.83;;;14.90;70.50;;;;;;4972717;28;20260;-71
2024/03/09 10:08:11;;;;;;;14.00;11.43;;;15.20;67.80;;;;;;4973160;28;20177;-73
2024/03/09 10:10:41;;;;;;;15.53;11.93;;;15.30;67.80;;;;;;4972718;28;20244;-74
2024/03/09 10:13:10;;;;;;;15.57;11.40;;;15.50;67.80;;;;;;4973479;28;20675;-70
2024/03/09 10:15:38;;;;;;;14.70;11.20;;;15.50;64.80;;;;;;4972299;28;20177;-69
2024/03/09 10:18:05;;;;;;;15.73;12.60;;;15.50;66.80;;;;;;4973024;28;20205;-72
2024/03/09 10:20:32;;;;;;;15.83;11.83;;;15.30;62.80;;;;;;4972429;28;20216;-72
2024/03/09 10:23:01;;;;;;;15.37;11.40;;;15.30;67.10;;;;;;4971297;28;20308;-72
2024/03/09 10:25:27;;;;;;;16.47;12.23;;;15.30;67.30;;;;;;4972142;28;20291;-72
2024/03/09 10:27:58;;;;;;;16.00;12.13;;;15.50;68.20;;;;;;4972788;28;20544;-72
2024/03/09 10:30:27;;;;;;;15.07;11.50;;;15.50;65.70;;;;;;4972404;28;20193;-73
2024/03/09 10:32:58;;;;;;;14.97;12.07;;;15.50;66.10;;;;;;4972601;28;20169;-73
2024/03/09 10:35:24;;;;;;;18.30;12.90;;;15.60;66.30;;;;;;4972635;28;20182;-73
2024/03/09 10:37:51;;;;;;;16.63;11.57;;;15.70;65.80;;;;;;4972608;28;20172;-73
2024/03/09 10:40:20;;;;;;;16.33;11.23;;;15.70;65.10;;;;;;4972291;28;20778;-72
2024/03/09 10:42:47;;;;;;;14.60;12.13;;;15.70;65.90;;;;;;4972564;28;20170;-73
2024/03/09 10:45:15;;;;;;;16.17;11.53;;;15.40;63.50;;;;;;4972216;28;20177;-73
2024/03/09 10:47:52;;;;;;;15.57;11.67;;;15.40;67.20;;;;;;4964773;28;20177;-72
2024/03/09 10:50:29;;;;;;;16.23;11.87;;;15.70;65.90;;;;;;4972481;28;20197;-72
2024/03/09 10:53:01;;;;;;;15.83;10.80;;;16.10;65.30;;;;;;4978423;28;20172;-71
2024/03/09 10:55:39;;;;;;;13.23;11.27;;;16.50;63.50;;;;;;4971943;28;20576;-74
2024/03/09 10:58:05;;;;;;;15.73;11.10;;;16.70;61.20;;;;;;4972252;28;20185;-71
2024/03/09 11:00:33;;;;;;;14.97;11.57;;;16.70;63.70;;;;;;4971579;28;20213;-72
2024/03/09 11:03:03;;;;;;;14.37;11.10;;;16.40;61.60;;;;;;4972348;28;20169;-73
2024/03/09 11:05:34;;;;;;;16.93;11.90;;;16.40;64.40;;;;;;4972018;28;20205;-72
2024/03/09 11:08:00;;;;;;;14.13;10.63;;;16.40;62.20;;;;;;4972654;28;20240;-73
2024/03/09 11:10:26;;;;;;;14.97;10.73;;;16.40;62.10;;;;;;4970509;28;20205;-71
2024/03/09 11:12:52;;;;;;;16.67;11.97;;;16.30;61.90;;;;;;4971598;28;20178;-71
2024/03/09 11:15:21;;;;;;;20.23;12.63;;;16.20;61.00;;;;;;4953251;28;20224;-72
2024/03/09 11:17:46;;;;;;;16.20;11.43;;;16.20;60.70;;;;;;4971701;28;20244;-72
2024/03/09 11:20:15;;;;;;;15.33;11.50;;;16.50;61.30;;;;;;4972039;28;20185;-71
2024/03/09 11:22:45;;;;;;;15.90;11.30;;;16.80;63.60;;;;;;4971511;28;20244;-73
2024/03/09 11:25:32;;;;;;;14.87;10.37;;;17.20;59.80;;;;;;4971754;28;20244;-72
2024/03/09 11:27:58;;;;;;;16.07;11.63;;;17.30;58.30;;;;;;4965574;28;20544;-71
2024/03/09 11:30:30;;;;;;;12.97;10.70;;;17.30;59.50;;;;;;4971620;28;20243;-70
2024/03/09 11:32:55;;;;;;;14.93;11.18;;;17.40;58.50;;;;;;4971767;28;20193;-69
2024/03/09 11:35:33;;;;;;;15.23;11.20;;;17.50;58.20;;;;;;4971536;28;20204;-71
2024/03/09 11:38:16;;;;;;;15.93;10.93;;;17.40;56.60;;;;;;4971883;28;20181;-71
2024/03/09 11:40:43;;;;;;;14.47;11.23;;;17.20;58.00;;;;;;4971536;28;20727;-72
2024/03/09 11:43:14;;;;;;;13.73;10.50;;;16.90;56.30;;;;;;4971393;28;20169;-71
2024/03/09 11:45:40;;;;;;;15.53;10.53;;;16.80;57.70;;;;;;4970951;28;20578;-71
2024/03/09 11:48:08;;;;;;;16.77;11.17;;;16.60;57.80;;;;;;4971833;28;20182;-71
2024/03/09 11:50:34;;;;;;;15.17;10.97;;;16.60;57.30;;;;;;4971523;28;20259;-71
2024/03/09 11:53:03;;;;;;;15.43;10.80;;;16.60;57.00;;;;;;4971649;28;20173;-71
2024/03/09 11:55:31;;;;;;;14.97;10.10;;;16.50;56.40;;;;;;4971071;28;20185;-72
2024/03/09 11:57:57;;;;;;;14.10;10.43;;;16.60;57.00;;;;;;4971632;28;20221;-72
2024/03/09 12:00:23;;;;;;;15.13;10.53;;;16.60;57.10;;;;;;4971295;28;20214;-68
2024/03/09 12:02:49;;;;;;;16.60;10.97;;;16.60;57.40;;;;;;4971601;28;20189;-73
2024/03/09 12:05:17;;;;;;;14.07;10.87;;;16.60;55.10;;;;;;4970869;28;20182;-73
2024/03/09 12:07:46;;;;;;;13.10;9.73;;;16.50;55.30;;;;;;4971393;28;20186;-74
2024/03/09 12:10:15;;;;;;;13.73;9.90;;;16.60;58.70;;;;;;4971504;28;20200;-70
2024/03/09 12:12:44;;;;;;;12.10;9.83;;;16.60;55.30;;;;;;4971597;28;20188;-70
2024/03/09 12:15:11;;;;;;;13.30;9.07;;;16.40;55.80;;;;;;4971253;28;20169;-73
2024/03/09 12:17:39;;;;;;;13.67;10.27;;;16.50;58.00;;;;;;4970736;28;20248;-73
2024/03/09 12:20:09;;;;;;;13.07;9.43;;;16.70;56.20;;;;;;4954064;28;20284;-72
2024/03/09 12:22:35;;;;;;;13.77;9.60;;;17.10;58.60;;;;;;4972197;28;20201;-70
2024/03/09 12:25:03;;;;;;;14.13;10.10;;;17.60;57.40;;;;;;4975036;28;20181;-72
2024/03/09 12:27:30;;;;;;;14.23;9.87;;;17.90;57.70;;;;;;4974744;28;20233;-72
2024/03/09 12:29:56;;;;;;;11.80;9.30;;;17.90;55.80;;;;;;4974860;28;20193;-72
2024/03/09 12:32:26;;;;;;;12.50;9.47;;;17.60;54.90;;;;;;4974151;28;20185;-74
2024/03/09 12:34:54;;;;;;;13.93;10.73;;;17.70;54.50;;;;;;4975040;28;20609;-73
2024/03/09 12:37:26;;;;;;;14.03;9.47;;;17.80;54.80;;;;;;4974811;28;20193;-71
2024/03/09 12:40:19;;;;;;;10.57;8.77;;;17.80;55.50;;;;;;4974701;28;20201;-73